Airfield :
LOGIN :

Register | Disclaimer

   EN    FR    IT 

 










Legend :    VFR   Marginal VFR   IFR   Intensive IFR   Very Intensive IFR
Visi :
Ceiling :
>= 8 km
>= 3000ft
5 to 8 km
1000 to 3000 ft
1500m to 5 km
500 to 1000 ft
800 to 1500m
200 to 500 ft
< 800m
< 200 ft
Symbols :   Thunderstorms  Fog  Heavy snow  Heavy precipitations  Wind > 20 kt
SIGMETs :     Misc.  Thunderstorms  Icing  Turbulence  Mountain Waves  Volcanic Ashes






- Airport Elevation : 65 ft
- IATA code : PIK


EGPK - Glasgow Prestwick

CURRENT METAR :
  • 132220Z 22003KT 9999 SCT025 09/08 Q1005

EXPIRED METARs :
  • 132150Z 22002KT 9999 SCT023 09/08 Q1005
  • 132120Z 22003KT 9999 SCT023 09/08 Q1004
  • 132050Z 22002KT 9999 FEW013 BKN025 09/08 Q1004
  • 132020Z 26002KT 9999 -RA BKN015 09/08 Q1004
  • 131950Z 26006KT 9999 -RA BKN030 09/08 Q1003

TAF TAF EGPK
Valid from the 13 at 18:00 until the 14 at 18:00 UTC


131702Z 1318/1418 VRB04KT 9999 SCT020
TEMPO 1318/1322 6000 RA BKN012
PROB30
TEMPO 1318/1320 3000 +RA
PROB30
TEMPO 1400/1408 8000
PROB30
TEMPO 1411/1414 8000 -RA



MET'MAP, your aeronautical weather chart ! - Copyright ORBIFLY December 2007 - Disclaimer

ORBIFLY MET'MAP TEAM :

Programming & Development : Alexandra Zaïnal
Concept & Development : Baudouin d'Aumeries
Co-Development & Prog : Marc-Olivier Méhu
Technical & hardware support : Manuel Goepfert

Contact : metmap@orbifly.com




SOURCES & CREDITS :

   NOAA